Time;durP1;ratioP1;P1;durP2;ratioP2;P2;SDS_P1;SDS_P2;PMS_P1;PMS_P2;Temp;Humidity;BMP_temperature;BMP_pressure;BME280_temperature;BME280_humidity;BME280_pressure;Samples;Min_cycle;Max_cycle;Signal;HPM_P1;HPM_P2
2022/10/18 00:02:14;;;;;;;;;;;;;;;20.75;62.76;101480.78;4937714;28;6769;-77
2022/10/18 00:04:40;;;;;;;;;;;;;;;20.77;62.64;101484.34;4935172;28;6792;-78
2022/10/18 00:07:06;;;;;;;;;;;;;;;20.78;62.45;101486.94;4937725;29;7002;-80
2022/10/18 00:09:31;;;;;;;;;;;;;;;20.80;62.22;101479.19;4938233;28;7210;-78
2022/10/18 00:11:57;;;;;;;;;;;;;;;20.82;62.40;101477.53;4943321;28;6784;-79
2022/10/18 00:14:23;;;;;;;;;;;;;;;20.80;62.25;101469.63;4936978;28;6958;-78
2022/10/18 00:16:49;;;;;;;;;;;;;;;20.80;62.27;101468.75;4938766;28;6974;-78
2022/10/18 00:19:15;;;;;;;;;;;;;;;20.79;62.21;101467.88;4936884;28;6844;-78
2022/10/18 00:21:40;;;;;;;;;;;;;;;20.79;62.44;101469.59;4922640;28;6784;-78
2022/10/18 00:24:06;;;;;;;;;;;;;;;20.77;62.33;101461.75;4938545;28;8645;-78
2022/10/18 00:26:31;;;;;;;;;;;;;;;20.76;62.36;101466.91;4934881;28;6780;-79
2022/10/18 00:29:03;;;;;;;;;;;;;;;20.75;61.98;101468.66;4940891;28;6903;-79
2022/10/18 00:31:32;;;;;;;;;;;;;;;20.72;62.43;101466.00;4924723;28;9142;-78
2022/10/18 00:34:03;;;;;;;;;;;;;;;20.72;62.63;101473.81;4922648;28;6940;-78
2022/10/18 00:36:31;;;;;;;;;;;;;;;20.70;62.39;101472.88;4935030;28;7015;-78
2022/10/18 00:38:57;;;;;;;;;;;;;;;20.73;62.12;101466.84;4939737;28;7249;-78
2022/10/18 00:41:28;;;;;;;;;;;;;;;20.71;62.50;101469.41;4915134;28;7277;-78
2022/10/18 00:44:11;;;;;;;;;;;;;;;20.72;62.22;101471.19;4939983;28;6996;-78
2022/10/18 00:46:43;;;;;;;;;;;;;;;20.70;62.18;101467.66;4937220;28;6820;-78
2022/10/18 00:49:19;;;;;;;;;;;;;;;20.71;62.32;101459.00;4938396;28;7485;-78
2022/10/18 00:51:57;;;;;;;;;;;;;;;20.70;62.32;101462.44;4915295;28;9032;-80
2022/10/18 00:54:25;;;;;;;;;;;;;;;20.71;62.31;101464.19;4937081;28;10076;-78
2022/10/18 00:56:51;;;;;;;;;;;;;;;20.71;62.38;101461.59;4920217;28;6800;-78
2022/10/18 00:59:18;;;;;;;;;;;;;;;20.69;62.50;101452.88;4939870;28;6781;-78
2022/10/18 01:01:45;;;;;;;;;;;;;;;20.66;62.64;101453.69;4936157;28;7386;-78
2022/10/18 01:04:13;;;;;;;;;;;;;;;20.63;62.01;101451.00;4939610;28;7213;-77
2022/10/18 01:06:58;;;;;;;;;;;;;;;20.60;62.34;101461.38;4935506;28;6962;-79
2022/10/18 01:10:01;;;;;;;;;;;;;;;20.52;62.34;101468.13;4936699;28;6776;-77
2022/10/18 01:13:10;;;;;;;;;;;;;;;20.39;62.42;101462.63;4938406;28;6828;-77
2022/10/18 01:16:04;;;;;;;;;;;;;;;20.29;63.17;101450.22;4933527;28;6828;-78
2022/10/18 01:18:54;;;;;;;;;;;;;;;20.26;63.29;101465.75;4934960;28;6994;-77
2022/10/18 01:22:04;;;;;;;;;;;;;;;20.24;63.17;101462.22;4934090;28;7061;-78
2022/10/18 01:25:06;;;;;;;;;;;;;;;20.22;62.88;101459.56;4939935;28;7400;-79
2022/10/18 01:28:10;;;;;;;;;;;;;;;20.23;63.36;101465.69;4919830;28;8783;-78
2022/10/18 01:30:50;;;;;;;;;;;;;;;20.23;63.40;101470.88;4896400;28;7427;-77
2022/10/18 01:33:40;;;;;;;;;;;;;;;20.25;62.71;101466.59;4938699;28;7111;-77
2022/10/18 01:36:18;;;;;;;;;;;;;;;20.24;63.17;101467.44;4939285;28;7394;-77
2022/10/18 01:38:49;;;;;;;;;;;;;;;20.23;62.60;101470.88;4936435;28;6788;-78
2022/10/18 01:41:21;;;;;;;;;;;;;;;20.19;63.25;101475.13;4927207;28;6986;-78
2022/10/18 01:43:55;;;;;;;;;;;;;;;20.16;63.07;101472.47;4928917;28;7067;-78
2022/10/18 01:46:24;;;;;;;;;;;;;;;20.13;63.11;101469.75;4930320;28;12646;-78
2022/10/18 01:48:52;;;;;;;;;;;;;;;20.14;63.13;101468.03;4917323;28;6871;-78
2022/10/18 01:51:25;;;;;;;;;;;;;;;20.11;63.36;101472.34;4930865;28;7849;-78
2022/10/18 01:53:50;;;;;;;;;;;;;;;20.11;63.66;101467.13;4935593;28;7270;-77
2022/10/18 01:56:40;;;;;;;;;;;;;;;20.09;63.51;101474.03;4918369;28;6964;-79
2022/10/18 01:59:38;;;;;;;;;;;;;;;20.05;63.82;101466.09;4938768;28;6985;-78
2022/10/18 02:02:26;;;;;;;;;;;;;;;19.99;63.42;101472.03;4931696;28;6816;-78
2022/10/18 02:05:21;;;;;;;;;;;;;;;19.96;63.36;101471.94;4923169;28;6801;-77
2022/10/18 02:08:03;;;;;;;;;;;;;;;19.92;64.17;101468.34;4933651;28;7220;-78
2022/10/18 02:10:36;;;;;;;;;;;;;;;19.91;63.70;101468.31;4933325;28;7182;-77
2022/10/18 02:13:02;;;;;;;;;;;;;;;19.89;63.99;101473.47;4938443;28;6952;-78
2022/10/18 02:15:45;;;;;;;;;;;;;;;19.87;63.65;101472.53;4919432;28;8433;-78
2022/10/18 02:18:24;;;;;;;;;;;;;;;19.84;63.59;101481.16;4915494;28;8533;-79
2022/10/18 02:20:51;;;;;;;;;;;;;;;19.83;64.13;101476.78;4931241;28;8452;-79
2022/10/18 02:23:23;;;;;;;;;;;;;;;19.83;64.25;101481.97;4936217;28;6853;-77
2022/10/18 02:25:50;;;;;;;;;;;;;;;19.82;64.43;101488.03;4932844;28;6973;-78
2022/10/18 02:28:16;;;;;;;;;;;;;;;19.84;64.31;101483.75;4920489;28;8772;-78
2022/10/18 02:31:12;;;;;;;;;;;;;;;19.86;64.56;101476.00;4929946;28;7218;-78
2022/10/18 02:33:51;;;;;;;;;;;;;;;19.90;64.79;101474.34;4933291;28;6990;-78
2022/10/18 02:36:36;;;;;;;;;;;;;;;19.95;64.37;101475.38;4935506;28;7350;-78
2022/10/18 02:39:18;;;;;;;;;;;;;;;19.96;64.49;101472.81;4934847;28;6800;-78
2022/10/18 02:41:43;;;;;;;;;;;;;;;19.98;64.72;101465.94;4937326;28;7418;-78
2022/10/18 02:44:10;;;;;;;;;;;;;;;20.00;64.56;101468.59;4921773;28;6835;-79
2022/10/18 02:46:36;;;;;;;;;;;;;;;20.02;64.60;101479.91;4936452;28;7222;-78
2022/10/18 02:49:02;;;;;;;;;;;;;;;20.03;64.95;101468.66;4935473;28;7057;-79
2022/10/18 02:51:27;;;;;;;;;;;;;;;20.04;64.49;101466.91;4941467;28;6975;-78
2022/10/18 02:53:53;;;;;;;;;;;;;;;20.05;64.50;101460.91;4930464;28;8672;-78
2022/10/18 02:56:19;;;;;;;;;;;;;;;20.05;64.72;101453.97;4906682;29;6952;-78
2022/10/18 02:58:44;;;;;;;;;;;;;;;20.05;64.39;101455.69;4937059;28;7222;-85
2022/10/18 03:01:10;;;;;;;;;;;;;;;20.05;64.50;101450.50;4918868;29;6967;-78
2022/10/18 03:03:35;;;;;;;;;;;;;;;20.05;64.73;101451.34;4932794;28;6768;-78
2022/10/18 03:06:01;;;;;;;;;;;;;;;20.03;64.28;101450.44;4935289;28;7009;-80
2022/10/18 03:08:27;;;;;;;;;;;;;;;20.02;64.64;101453.88;4934971;28;6829;-78
2022/10/18 03:10:52;;;;;;;;;;;;;;;20.03;64.29;101455.66;4925468;29;8413;-78
2022/10/18 03:13:18;;;;;;;;;;;;;;;20.03;64.34;101458.25;4938738;28;6772;-78
2022/10/18 03:15:43;;;;;;;;;;;;;;;20.03;64.44;101447.84;4938164;28;6780;-78
2022/10/18 03:18:09;;;;;;;;;;;;;;;20.04;64.33;101449.59;4930401;28;6800;-78
2022/10/18 03:20:35;;;;;;;;;;;;;;;20.04;64.98;101447.00;4939454;28;6814;-79
2022/10/18 03:23:02;;;;;;;;;;;;;;;20.06;65.07;101447.91;4919637;29;8418;-78
2022/10/18 03:25:27;;;;;;;;;;;;;;;20.10;65.00;101454.06;4934577;28;7044;-78
2022/10/18 03:27:53;;;;;;;;;;;;;;;20.16;64.62;101456.84;4917140;29;6804;-78
2022/10/18 03:30:19;;;;;;;;;;;;;;;20.19;64.97;101453.44;4936161;28;6868;-78
2022/10/18 03:32:44;;;;;;;;;;;;;;;20.24;64.66;101449.22;4924292;28;8489;-78
2022/10/18 03:35:10;;;;;;;;;;;;;;;20.26;64.73;101447.53;4936323;28;6768;-78
2022/10/18 03:37:36;;;;;;;;;;;;;;;20.30;64.18;101458.91;4926794;29;7170;-78
2022/10/18 03:40:03;;;;;;;;;;;;;;;20.33;64.35;101457.25;4932292;28;6768;-79
2022/10/18 03:42:28;;;;;;;;;;;;;;;20.36;64.27;101451.25;4936313;28;7200;-80
2022/10/18 03:44:54;;;;;;;;;;;;;;;20.39;64.28;101454.81;4930939;28;6835;-77
2022/10/18 03:47:20;;;;;;;;;;;;;;;20.43;64.57;101453.16;4919298;28;7250;-78
2022/10/18 03:49:45;;;;;;;;;;;;;;;20.47;64.15;101454.09;4937663;28;7715;-80
2022/10/18 03:52:12;;;;;;;;;;;;;;;20.49;64.11;101462.84;4925025;28;6925;-78
2022/10/18 03:54:38;;;;;;;;;;;;;;;20.52;64.19;101458.59;4937422;28;7192;-80
2022/10/18 03:57:03;;;;;;;;;;;;;;;20.56;64.36;101466.47;4919239;28;6980;-78
2022/10/18 03:59:29;;;;;;;;;;;;;;;20.59;64.24;101474.34;4924049;28;7014;-78
2022/10/18 04:01:55;;;;;;;;;;;;;;;20.61;64.17;101475.25;4920978;28;6934;-80
2022/10/18 04:04:20;;;;;;;;;;;;;;;20.60;63.79;101469.19;4936947;28;6818;-79
2022/10/18 04:06:46;;;;;;;;;;;;;;;20.60;63.90;101463.97;4936312;28;7183;-78
2022/10/18 04:09:12;;;;;;;;;;;;;;;20.60;63.97;101469.19;4936188;28;6959;-77
2022/10/18 04:11:37;;;;;;;;;;;;;;;20.61;63.79;101477.84;4938783;28;7167;-77
2022/10/18 04:14:03;;;;;;;;;;;;;;;20.62;63.65;101479.66;4935057;28;6991;-79
2022/10/18 04:16:30;;;;;;;;;;;;;;;20.59;63.80;101472.63;4917089;28;6848;-78
2022/10/18 04:18:55;;;;;;;;;;;;;;;20.63;64.02;101489.22;4937089;28;6780;-78
2022/10/18 04:21:21;;;;;;;;;;;;;;;20.62;63.87;101469.22;4937324;28;7474;-78
2022/10/18 04:23:49;;;;;;;;;;;;;;;20.63;63.56;101476.19;4932327;28;6768;-79
2022/10/18 04:26:16;;;;;;;;;;;;;;;20.63;63.85;101486.63;4934771;28;6957;-79
2022/10/18 04:28:42;;;;;;;;;;;;;;;20.62;63.79;101480.50;4926272;28;6953;-79
2022/10/18 04:31:10;;;;;;;;;;;;;;;20.62;63.72;101484.84;4919647;28;7199;-78
2022/10/18 04:33:36;;;;;;;;;;;;;;;20.61;64.03;101491.78;4916465;28;8508;-79
2022/10/18 04:36:02;;;;;;;;;;;;;;;20.61;64.11;101490.88;4924851;28;6955;-78
2022/10/18 04:38:28;;;;;;;;;;;;;;;20.61;63.92;101491.78;4931679;28;6776;-80
2022/10/18 04:40:53;;;;;;;;;;;;;;;20.62;63.58;101492.66;4926742;28;8443;-78
2022/10/18 04:43:19;;;;;;;;;;;;;;;20.59;64.02;101489.97;4935380;28;7199;-77
2022/10/18 04:45:45;;;;;;;;;;;;;;;20.57;63.92;101489.06;4937606;28;7004;-78
2022/10/18 04:48:11;;;;;;;;;;;;;;;20.53;63.94;101486.38;4941174;28;6965;-77
2022/10/18 04:50:38;;;;;;;;;;;;;;;20.54;63.72;101492.47;4937525;28;6847;-79
2022/10/18 04:53:03;;;;;;;;;;;;;;;20.54;63.96;101492.47;4937275;28;6951;-79
2022/10/18 04:55:29;;;;;;;;;;;;;;;20.55;63.61;101489.00;4916877;28;9497;-78
2022/10/18 04:57:54;;;;;;;;;;;;;;;20.57;63.83;101494.25;4920506;28;8785;-79
2022/10/18 05:00:20;;;;;;;;;;;;;;;20.55;63.68;101489.00;4934804;28;8402;-78
2022/10/18 05:02:46;;;;;;;;;;;;;;;20.57;63.93;101491.66;4934910;28;6852;-79
2022/10/18 05:05:11;;;;;;;;;;;;;;;20.53;63.80;101482.91;4934627;28;6948;-79
2022/10/18 05:07:37;;;;;;;;;;;;;;;20.54;63.81;101488.16;4941390;28;7015;-78
2022/10/18 05:10:03;;;;;;;;;;;;;;;20.54;63.87;101487.25;4932862;28;6780;-80
2022/10/18 05:12:29;;;;;;;;;;;;;;;20.54;63.92;101492.47;4939331;28;6822;-78
2022/10/18 05:14:55;;;;;;;;;;;;;;;20.53;63.85;101501.13;4936394;28;6792;-78
2022/10/18 05:17:20;;;;;;;;;;;;;;;20.52;63.96;101505.47;4903844;28;6938;-78
2022/10/18 05:19:46;;;;;;;;;;;;;;;20.51;63.72;101508.03;4931324;28;6948;-78
2022/10/18 05:22:12;;;;;;;;;;;;;;;20.49;63.67;101504.50;4927834;28;7240;-78
2022/10/18 05:24:37;;;;;;;;;;;;;;;20.48;63.79;101502.75;4935487;28;7758;-77
2022/10/18 05:27:03;;;;;;;;;;;;;;;20.47;63.86;101501.84;4940658;28;6780;-78
2022/10/18 05:29:29;;;;;;;;;;;;;;;20.47;63.67;101495.75;4936121;28;6875;-78
2022/10/18 05:31:54;;;;;;;;;;;;;;;20.45;63.42;101503.53;4912854;28;8375;-78
2022/10/18 05:34:20;;;;;;;;;;;;;;;20.44;63.67;101501.78;4930435;28;6999;-78
2022/10/18 05:36:48;;;;;;;;;;;;;;;20.43;63.97;101496.53;4924375;28;8613;-79
2022/10/18 05:39:13;;;;;;;;;;;;;;;20.42;63.27;101498.25;4925059;28;8551;-80
2022/10/18 05:41:39;;;;;;;;;;;;;;;20.40;63.71;101493.03;4922903;28;9010;-80
2022/10/18 05:44:06;;;;;;;;;;;;;;;20.42;63.46;101499.97;4932661;28;7235;-78
2022/10/18 05:46:32;;;;;;;;;;;;;;;20.41;63.59;101496.47;4929947;28;7174;-80
2022/10/18 05:48:58;;;;;;;;;;;;;;;20.39;63.62;101491.25;4934566;28;6848;-78
2022/10/18 05:51:23;;;;;;;;;;;;;;;20.40;63.56;101489.53;4930159;28;6772;-79
2022/10/18 05:53:49;;;;;;;;;;;;;;;20.40;63.63;101493.03;4918067;28;8414;-79
2022/10/18 05:56:15;;;;;;;;;;;;;;;20.39;63.71;101495.56;4933119;28;6942;-78
2022/10/18 05:58:41;;;;;;;;;;;;;;;20.39;63.47;101498.19;4921544;28;6781;-78
2022/10/18 06:01:09;;;;;;;;;;;;;;;20.42;63.62;101507.78;4926863;28;7184;-78
2022/10/18 06:03:35;;;;;;;;;;;;;;;20.43;63.94;101509.56;4923566;28;8411;-79
2022/10/18 06:06:07;;;;;;;;;;;;;;;20.45;63.40;101513.06;4935437;28;6988;-78
2022/10/18 06:08:34;;;;;;;;;;;;;;;20.47;63.55;101513.97;4929334;28;7350;-77
2022/10/18 06:11:06;;;;;;;;;;;;;;;20.49;63.15;101512.31;4919073;28;8710;-77
2022/10/18 06:13:32;;;;;;;;;;;;;;;20.48;63.89;101514.03;4919741;28;6931;-80
2022/10/18 06:15:57;;;;;;;;;;;;;;;20.48;63.90;101519.22;4936605;28;6948;-78
2022/10/18 06:18:23;;;;;;;;;;;;;;;20.50;63.60;101527.09;4934887;28;7164;-80
2022/10/18 06:20:54;;;;;;;;;;;;;;;20.51;63.54;101527.09;4936353;28;7275;-78
2022/10/18 06:23:20;;;;;;;;;;;;;;;20.57;63.78;101529.00;4939664;28;6800;-79
2022/10/18 06:25:45;;;;;;;;;;;;;;;20.57;63.78;101526.41;4941485;28;7118;-79
2022/10/18 06:28:11;;;;;;;;;;;;;;;20.58;63.29;101522.06;4937402;28;7211;-79
2022/10/18 06:30:37;;;;;;;;;;;;;;;20.58;63.88;101527.28;4932186;28;6871;-79
2022/10/18 06:33:02;;;;;;;;;;;;;;;20.58;63.62;101524.66;4936330;28;7348;-78
2022/10/18 06:35:28;;;;;;;;;;;;;;;20.59;63.82;101532.53;4938152;28;6777;-78
2022/10/18 06:37:53;;;;;;;;;;;;;;;20.59;63.54;101529.94;4933166;28;7262;-78
2022/10/18 06:40:19;;;;;;;;;;;;;;;20.62;63.74;101542.16;4917613;28;8383;-78
2022/10/18 06:42:46;;;;;;;;;;;;;;;20.61;63.49;101546.47;4935612;28;6904;-78
2022/10/18 06:45:11;;;;;;;;;;;;;;;20.62;63.95;101545.63;4935035;28;6800;-78
2022/10/18 06:47:37;;;;;;;;;;;;;;;20.63;63.85;101533.50;4939608;28;7147;-79
2022/10/18 06:50:03;;;;;;;;;;;;;;;20.67;63.69;101535.31;4922707;28;6944;-79
2022/10/18 06:52:28;;;;;;;;;;;;;;;20.70;63.45;101537.13;4936623;28;7251;-80
2022/10/18 06:54:54;;;;;;;;;;;;;;;20.71;63.18;101538.88;4931079;28;6764;-78
2022/10/18 06:57:20;;;;;;;;;;;;;;;20.68;63.26;101542.28;4922117;28;6943;-78
2022/10/18 06:59:46;;;;;;;;;;;;;;;20.66;63.23;101552.66;4934631;28;6800;-79
2022/10/18 07:02:16;;;;;;;;;;;;;;;20.64;63.38;101549.13;4918347;28;6844;-78
2022/10/18 07:04:42;;;;;;;;;;;;;;;20.64;63.66;101550.88;4934868;28;6792;-78
2022/10/18 07:07:07;;;;;;;;;;;;;;;20.68;63.58;101563.13;4923441;28;6947;-78
2022/10/18 07:09:33;;;;;;;;;;;;;;;20.71;63.46;101568.41;4936360;28;6796;-79
2022/10/18 07:11:58;;;;;;;;;;;;;;;20.74;63.54;101567.59;4920391;29;6852;-78
2022/10/18 07:14:24;;;;;;;;;;;;;;;20.75;63.34;101577.16;4937096;28;7253;-78
2022/10/18 07:16:50;;;;;;;;;;;;;;;20.75;63.51;101579.78;4921211;29;8430;-78
2022/10/18 07:19:15;;;;;;;;;;;;;;;20.75;62.84;101583.28;4936282;28;6948;-79
2022/10/18 07:21:41;;;;;;;;;;;;;;;20.74;63.12;101584.13;4926893;28;6776;-78
2022/10/18 07:24:07;;;;;;;;;;;;;;;20.75;63.50;101580.66;4939512;28;6898;-78
2022/10/18 07:26:34;;;;;;;;;;;;;;;20.76;63.52;101591.94;4941499;28;7238;-81
2022/10/18 07:29:10;;;;;;;;;;;;;;;20.78;63.61;101591.16;4927202;28;8672;-78
2022/10/18 07:31:37;;;;;;;;;;;;;;;20.79;63.15;101586.84;4921713;28;7119;-79
2022/10/18 07:34:04;;;;;;;;;;;;;;;20.83;63.53;101593.03;4940122;28;7119;-78
2022/10/18 07:36:30;;;;;;;;;;;;;;;20.86;63.45;101600.91;4942080;28;6856;-78
2022/10/18 07:38:56;;;;;;;;;;;;;;;20.89;63.20;101609.69;4935075;28;6872;-78
2022/10/18 07:41:22;;;;;;;;;;;;;;;20.91;63.15;101617.56;4937382;28;6997;-81
2022/10/18 07:43:50;;;;;;;;;;;;;;;20.91;63.27;101613.22;4924114;28;7226;-80
2022/10/18 07:46:17;;;;;;;;;;;;;;;20.91;63.64;101615.81;4936902;28;6880;-79
2022/10/18 07:48:43;;;;;;;;;;;;;;;20.93;63.40;101621.94;4941851;28;7098;-78
2022/10/18 07:51:10;;;;;;;;;;;;;;;20.94;63.35;101618.50;4939718;28;6792;-78
2022/10/18 07:53:36;;;;;;;;;;;;;;;21.00;63.49;101617.75;4910949;28;8542;-78
2022/10/18 07:56:14;;;;;;;;;;;;;;;21.03;63.70;101617.84;4938226;28;6828;-78
2022/10/18 07:58:41;;;;;;;;;;;;;;;21.07;63.46;101629.25;4921158;28;8482;-78
2022/10/18 08:01:08;;;;;;;;;;;;;;;21.09;63.55;101624.94;4922589;28;6784;-79
2022/10/18 08:03:35;;;;;;;;;;;;;;;21.11;63.14;101631.06;4924072;28;6800;-79
2022/10/18 08:06:02;;;;;;;;;;;;;;;21.13;63.32;101628.50;4935734;28;6860;-79
2022/10/18 08:08:28;;;;;;;;;;;;;;;21.15;63.47;101630.31;4926493;28;6973;-78
2022/10/18 08:11:00;;;;;;;;;;;;;;;21.14;63.16;101635.47;4936660;28;6868;-78
2022/10/18 08:13:26;;;;;;;;;;;;;;;21.12;62.93;101639.78;4922594;28;7275;-78
2022/10/18 08:16:00;;;;;;;;;;;;;;;21.08;62.99;101652.72;4940460;28;7187;-76
2022/10/18 08:18:26;;;;;;;;;;;;;;;21.06;62.93;101643.13;4925120;28;6974;-78
2022/10/18 08:20:51;;;;;;;;;;;;;;;21.03;63.10;101646.53;4937870;28;7576;-78
2022/10/18 08:23:17;;;;;;;;;;;;;;;21.06;63.27;101654.41;4934999;28;6859;-78
2022/10/18 08:25:42;;;;;;;;;;;;;;;21.08;63.06;101651.84;4936539;28;6843;-78
2022/10/18 08:28:08;;;;;;;;;;;;;;;21.08;62.82;101652.72;4938549;28;7054;-78
2022/10/18 08:30:35;;;;;;;;;;;;;;;21.07;62.84;101644.88;4937298;28;6955;-77
2022/10/18 08:33:02;;;;;;;;;;;;;;;21.08;63.34;101641.41;4934741;28;6809;-78
2022/10/18 08:35:27;;;;;;;;;;;;;;;21.13;63.38;101638.94;4938952;28;6868;-80
2022/10/18 08:37:53;;;;;;;;;;;;;;;21.21;63.70;101651.28;4926027;28;8982;-80
2022/10/18 08:40:19;;;;;;;;;;;;;;;21.31;63.64;101647.19;4938725;28;6842;-77
2022/10/18 08:43:04;;;;;;;;;;;;;;;21.40;63.18;101654.31;4936112;28;6772;-78
2022/10/18 08:45:37;;;;;;;;;;;;;;;21.47;63.38;101656.25;4938273;28;6980;-78
2022/10/18 08:48:05;;;;;;;;;;;;;;;21.52;62.95;101653.72;4921335;28;6804;-79
2022/10/18 08:50:36;;;;;;;;;;;;;;;21.56;62.88;101658.16;4925366;28;6804;-78
2022/10/18 08:53:23;;;;;;;;;;;;;;;21.62;63.06;101657.41;4937017;28;6801;-78
2022/10/18 08:56:03;;;;;;;;;;;;;;;21.70;63.31;101666.31;4939441;28;7942;-77
2022/10/18 08:58:32;;;;;;;;;;;;;;;21.77;63.20;101663.00;4925884;28;7370;-77
2022/10/18 09:01:21;;;;;;;;;;;;;;;21.85;63.06;101664.91;4938057;28;6796;-78
2022/10/18 09:03:55;;;;;;;;;;;;;;;21.90;62.85;101663.25;4936957;28;8494;-78
2022/10/18 09:06:43;;;;;;;;;;;;;;;21.91;62.42;101668.53;4921683;28;8998;-78
2022/10/18 09:09:17;;;;;;;;;;;;;;;21.93;62.39;101665.97;4936437;28;7195;-79
2022/10/18 09:12:06;;;;;;;;;;;;;;;21.94;62.52;101667.72;4939667;28;7106;-78
2022/10/18 09:15:30;;;;;;;;;;;;;;;21.96;61.95;101668.63;4941778;28;6897;-77
2022/10/18 09:18:32;;;;;;;;;;;;;;;21.95;62.29;101674.69;4930540;28;7175;-78
2022/10/18 09:21:22;;;;;;;;;;;;;;;21.94;61.98;101682.47;4922267;28;8494;-79
2022/10/18 09:24:17;;;;;;;;;;;;;;;21.94;62.23;101680.78;4939935;28;6945;-78
2022/10/18 09:26:46;;;;;;;;;;;;;;;21.96;62.19;101683.38;4941435;28;6812;-80
2022/10/18 09:29:36;;;;;;;;;;;;;;;21.97;61.64;101688.66;4935357;28;6820;-77
2022/10/18 09:32:23;;;;;;;;;;;;;;;21.94;62.29;101692.94;4938160;28;6820;-77
2022/10/18 09:35:04;;;;;;;;;;;;;;;21.92;62.19;101695.50;4941015;28;6975;-79
2022/10/18 09:37:33;;;;;;;;;;;;;;;21.91;61.90;101693.72;4923894;28;7114;-78
2022/10/18 09:40:23;;;;;;;;;;;;;;;21.91;62.22;101696.34;4936798;28;6982;-78
2022/10/18 09:43:10;;;;;;;;;;;;;;;21.91;61.98;101699.84;4920957;28;7327;-80
2022/10/18 09:45:41;;;;;;;;;;;;;;;21.92;62.33;101705.94;4926445;28;6878;-78
2022/10/18 09:48:30;;;;;;;;;;;;;;;21.92;61.88;101703.31;4938392;28;8402;-79
2022/10/18 09:51:07;;;;;;;;;;;;;;;21.89;62.01;101703.25;4929049;28;6970;-78
2022/10/18 09:53:39;;;;;;;;;;;;;;;21.83;61.79;101708.38;4935837;28;6804;-77
2022/10/18 09:56:17;;;;;;;;;;;;;;;21.78;61.56;101710.88;4930715;28;6907;-78
2022/10/18 09:58:50;;;;;;;;;;;;;;;21.74;61.84;101720.34;4928372;29;6828;-78
2022/10/18 10:01:30;;;;;;;;;;;;;;;21.73;61.66;101723.81;4933463;28;7004;-78
2022/10/18 10:03:56;;;;;;;;;;;;;;;21.72;61.62;101722.03;4930572;28;7226;-78
2022/10/18 10:06:29;;;;;;;;;;;;;;;21.74;61.50;101728.19;4932954;28;8434;-78
2022/10/18 10:09:16;;;;;;;;;;;;;;;21.69;61.25;101729.78;4919177;28;7150;-77
2022/10/18 10:11:54;;;;;;;;;;;;;;;21.59;61.28;101733.00;4928219;28;6870;-79
2022/10/18 10:14:26;;;;;;;;;;;;;;;21.54;61.32;101734.63;4922750;28;7161;-78
2022/10/18 10:17:19;;;;;;;;;;;;;;;21.47;61.41;101730.97;4933711;28;7257;-78
2022/10/18 10:20:20;;;;;;;;;;;;;;;21.40;61.28;101737.78;4927920;28;8393;-78
2022/10/18 10:22:48;;;;;;;;;;;;;;;21.37;61.79;101742.94;4928725;28;7436;-80
2022/10/18 10:25:30;;;;;;;;;;;;;;;21.43;61.97;101734.38;4936961;28;6808;-78
2022/10/18 10:28:15;;;;;;;;;;;;;;;21.46;61.76;101743.16;4904514;29;8967;-78
2022/10/18 10:30:41;;;;;;;;;;;;;;;21.50;61.66;101738.91;4919860;28;6860;-79
2022/10/18 10:33:37;;;;;;;;;;;;;;;21.53;61.60;101735.44;4933776;28;6780;-78
2022/10/18 10:36:16;;;;;;;;;;;;;;;21.54;61.55;101729.41;4928119;28;7075;-78
2022/10/18 10:38:42;;;;;;;;;;;;;;;21.53;61.41;101735.44;4921790;28;6803;-78
2022/10/18 10:41:22;;;;;;;;;;;;;;;21.52;61.46;101731.97;4918414;28;7034;-78
2022/10/18 10:43:50;;;;;;;;;;;;;;;21.53;61.79;101733.75;4935881;28;6808;-78
2022/10/18 10:46:19;;;;;;;;;;;;;;;21.55;61.32;101737.25;4932109;28;7063;-78
2022/10/18 10:48:54;;;;;;;;;;;;;;;21.52;61.07;101742.41;4935883;28;6880;-78
2022/10/18 10:51:37;;;;;;;;;;;;;;;21.49;61.30;101745.81;4935121;28;7236;-78
2022/10/18 10:54:04;;;;;;;;;;;;;;;21.50;61.26;101752.78;4921774;28;8536;-78
2022/10/18 10:56:36;;;;;;;;;;;;;;;21.53;61.18;101749.38;4922792;29;8437;-78
2022/10/18 10:59:14;;;;;;;;;;;;;;;21.59;61.35;101748.66;4936716;28;7262;-78
2022/10/18 11:01:40;;;;;;;;;;;;;;;21.67;61.45;101751.44;4935099;28;7295;-77
2022/10/18 11:04:29;;;;;;;;;;;;;;;21.76;61.39;101751.69;4934321;28;8734;-78
2022/10/18 11:07:10;;;;;;;;;;;;;;;21.87;61.25;101752.81;4934362;28;6828;-79
2022/10/18 11:10:09;;;;;;;;;;;;;;;22.04;61.70;101747.97;4933856;28;8437;-78
2022/10/18 11:13:08;;;;;;;;;;;;;;;22.27;61.48;101739.75;4940029;28;7198;-78
2022/10/18 11:15:47;;;;;;;;;;;;;;;22.49;60.89;101748.03;4935077;28;9283;-77
2022/10/18 11:18:13;;;;;;;;;;;;;;;22.63;60.52;101744.84;4933621;28;7316;-78
2022/10/18 11:21:10;;;;;;;;;;;;;;;22.74;59.93;101740.69;4919739;29;8476;-78
2022/10/18 11:23:40;;;;;;;;;;;;;;;22.94;60.82;101741.06;4935995;28;8130;-79
2022/10/18 11:26:11;;;;;;;;;;;;;;;23.35;60.55;101734.78;4921289;28;7232;-77
2022/10/18 11:28:55;;;;;;;;;;;;;;;24.09;60.91;101728.91;4933446;28;7273;-78
2022/10/18 11:32:06;;;;;;;;;;;;;;;25.26;59.05;101728.38;4932475;28;8363;-79
2022/10/18 11:35:02;;;;;;;;;;;;;;;26.19;54.88;101723.75;4937699;29;7230;-77
2022/10/18 11:37:45;;;;;;;;;;;;;;;26.66;52.50;101726.50;4936830;28;7010;-78
2022/10/18 11:40:43;;;;;;;;;;;;;;;26.81;51.22;101725.66;4937632;28;7118;-78
2022/10/18 11:43:43;;;;;;;;;;;;;;;27.22;50.55;101717.81;4926865;29;7047;-78
2022/10/18 11:46:43;;;;;;;;;;;;;;;27.53;49.57;101723.91;4937392;28;7147;-78
2022/10/18 11:49:26;;;;;;;;;;;;;;;27.99;48.81;101715.00;4935625;28;6792;-77
2022/10/18 11:52:24;;;;;;;;;;;;;;;28.39;47.27;101711.34;4936638;28;6959;-78
2022/10/18 11:55:01;;;;;;;;;;;;;;;28.88;46.11;101711.94;4919426;29;6999;-78
2022/10/18 11:57:48;;;;;;;;;;;;;;;29.58;44.83;101711.28;4935134;28;6960;-78
2022/10/18 12:00:32;;;;;;;;;;;;;;;30.33;43.64;101700.69;4933853;28;6970;-78
2022/10/18 12:03:46;;;;;;;;;;;;;;;30.98;42.18;101703.25;4934563;28;7094;-78
2022/10/18 12:06:20;;;;;;;;;;;;;;;30.94;41.25;101701.56;4935861;28;6990;-77
2022/10/18 12:08:53;;;;;;;;;;;;;;;30.24;40.80;101687.63;4933946;28;6883;-77
2022/10/18 12:11:33;;;;;;;;;;;;;;;29.28;41.94;101699.25;4919599;28;6808;-77
2022/10/18 12:14:04;;;;;;;;;;;;;;;28.41;43.35;101703.41;4918768;28;6828;-77
2022/10/18 12:16:36;;;;;;;;;;;;;;;27.75;43.84;101697.53;4934783;28;6999;-77
2022/10/18 12:19:13;;;;;;;;;;;;;;;27.19;44.57;101697.63;4923612;28;9050;-77
2022/10/18 12:21:40;;;;;;;;;;;;;;;26.68;45.49;101701.09;4928713;28;7007;-77
2022/10/18 12:24:14;;;;;;;;;;;;;;;26.16;45.52;101697.41;4936935;28;6816;-77
2022/10/18 12:26:41;;;;;;;;;;;;;;;25.61;46.33;101704.19;4922642;28;6848;-77
2022/10/18 12:29:49;;;;;;;;;;;;;;;25.11;47.26;101697.66;4929729;28;6800;-77
2022/10/18 12:32:23;;;;;;;;;;;;;;;24.61;47.86;101699.81;4936651;28;6836;-77
2022/10/18 12:35:05;;;;;;;;;;;;;;;24.29;48.44;101699.47;4920269;28;7008;-77
2022/10/18 12:37:53;;;;;;;;;;;;;;;24.12;49.42;101697.53;4935050;28;6991;-77
2022/10/18 12:40:41;;;;;;;;;;;;;;;24.04;50.52;101704.34;4934310;28;8091;-76
2022/10/18 12:43:24;;;;;;;;;;;;;;;23.95;50.07;101698.19;4938917;28;7227;-76
2022/10/18 12:45:57;;;;;;;;;;;;;;;23.91;50.67;101703.34;4914457;28;7191;-77
2022/10/18 12:48:44;;;;;;;;;;;;;;;23.87;50.97;101702.44;4925784;28;6796;-76
2022/10/18 12:51:20;;;;;;;;;;;;;;;23.83;51.18;101703.22;4920413;28;7229;-77
2022/10/18 12:54:10;;;;;;;;;;;;;;;23.86;50.98;101704.16;4939706;28;6820;-77
2022/10/18 12:56:40;;;;;;;;;;;;;;;23.94;51.10;101698.16;4926145;28;6809;-76
2022/10/18 12:59:15;;;;;;;;;;;;;;;24.02;51.31;101699.13;4924089;28;7227;-78
2022/10/18 13:01:50;;;;;;;;;;;;;;;24.11;50.76;101701.88;4936475;28;6957;-77
2022/10/18 13:04:27;;;;;;;;;;;;;;;24.18;50.90;101702.84;4939461;28;7179;-78
2022/10/18 13:06:56;;;;;;;;;;;;;;;24.19;50.66;101704.59;4929453;28;6979;-77
2022/10/18 13:09:25;;;;;;;;;;;;;;;24.17;50.73;101701.09;4936881;28;7364;-78
2022/10/18 13:12:14;;;;;;;;;;;;;;;24.11;50.15;101698.38;4919364;28;6808;-75
2022/10/18 13:15:22;;;;;;;;;;;;;;;24.04;49.74;101704.34;4935858;28;7266;-76
2022/10/18 13:18:16;;;;;;;;;;;;;;;23.97;50.75;101699.06;4934698;28;6990;-77
2022/10/18 13:21:07;;;;;;;;;;;;;;;24.04;50.79;101696.50;4937158;28;6820;-77